createdAt,value
2022-09-23T00:03:21.576Z,102109.38
2022-09-23T00:06:44.108Z,102110.34
2022-09-23T00:10:07.268Z,102100.84
2022-09-23T00:13:29.915Z,102097.44
2022-09-23T00:16:51.545Z,102097.44
2022-09-23T00:20:13.328Z,102093.94
2022-09-23T00:23:35.221Z,102102.81
2022-09-23T00:26:56.727Z,102095.06
2022-09-23T00:30:19.469Z,102087.31
2022-09-23T00:33:41.526Z,102091.91
2022-09-23T00:37:02.730Z,102095.59
2022-09-23T00:40:23.923Z,102092.16
2022-09-23T00:43:47.403Z,102090.50
2022-09-23T00:47:15.143Z,102086.13
2022-09-23T00:50:38.755Z,102085.28
2022-09-23T00:54:00.616Z,102092.34
2022-09-23T00:57:22.978Z,102078.22
2022-09-23T01:00:46.394Z,102087.16
2022-09-23T01:04:09.869Z,102073.31
2022-09-23T01:07:31.509Z,102074.25
2022-09-23T01:11:01.442Z,102076.03
2022-09-23T01:14:35.039Z,102074.38
2022-09-23T01:18:09.028Z,102068.44
2022-09-23T01:21:43.452Z,102063.47
2022-09-23T01:25:34.975Z,102064.44
2022-09-23T01:29:20.087Z,102058.44
2022-09-23T01:32:56.717Z,102063.88
2022-09-23T01:36:25.015Z,102058.72
2022-09-23T01:39:58.128Z,102056.25
2022-09-23T01:43:26.091Z,102051.03
2022-09-23T01:46:51.635Z,102051.09
2022-09-23T01:50:36.643Z,102047.78
2022-09-23T01:54:07.101Z,102048.78
2022-09-23T01:57:31.873Z,102043.75
2022-09-23T02:00:59.421Z,102042.03
2022-09-23T02:04:26.873Z,102047.31
2022-09-23T02:07:55.172Z,102041.38
2022-09-23T02:11:18.161Z,102033.63
2022-09-23T02:14:43.882Z,102037.31
2022-09-23T02:18:10.926Z,102043.47
2022-09-23T02:21:36.719Z,102035.53
2022-09-23T02:24:59.600Z,102023.41
2022-09-23T02:28:26.647Z,102024.41
2022-09-23T02:31:56.650Z,102024.53
2022-09-23T02:35:25.539Z,102011.41
2022-09-23T02:38:53.616Z,102008.69
2022-09-23T02:42:21.704Z,102006.19
2022-09-23T02:45:43.654Z,102003.63
2022-09-23T02:49:11.176Z,101999.31
2022-09-23T02:52:33.490Z,102006.44
2022-09-23T02:55:55.041Z,101994.16
2022-09-23T02:59:20.078Z,102001.28
2022-09-23T03:03:00.981Z,101991.78
2022-09-23T03:06:30.398Z,101993.69
2022-09-23T03:09:58.467Z,101998.22
2022-09-23T03:13:29.960Z,101989.53
2022-09-23T03:17:00.449Z,101988.72
2022-09-23T03:20:28.231Z,101988.78
2022-09-23T03:23:51.386Z,101977.44
2022-09-23T03:27:17.838Z,101966.13
2022-09-23T03:30:42.180Z,101968.88
2022-09-23T03:34:10.478Z,101966.31
2022-09-23T03:37:34.909Z,101966.38
2022-09-23T03:40:59.328Z,101959.47
2022-09-23T03:44:23.512Z,101959.50
2022-09-23T03:47:45.564Z,101960.41
2022-09-23T03:51:22.111Z,101953.50
2022-09-23T03:54:43.407Z,101951.75
2022-09-23T03:58:05.283Z,101951.88
2022-09-23T04:01:27.198Z,101950.25
2022-09-23T04:04:49.175Z,101959.13
2022-09-23T04:08:12.107Z,101952.22
2022-09-23T04:11:33.700Z,101944.47
2022-09-23T04:14:55.186Z,101937.34
2022-09-23T04:18:16.614Z,101933.00
2022-09-23T04:21:37.982Z,101933.13
2022-09-23T04:25:00.563Z,101936.72
2022-09-23T04:28:22.627Z,101935.00
2022-09-23T04:31:44.163Z,101919.31
2022-09-23T04:35:07.979Z,101926.41
2022-09-23T04:38:29.276Z,101922.94
2022-09-23T04:41:51.849Z,101929.00
2022-09-23T04:45:13.133Z,101929.00
2022-09-23T04:48:35.084Z,101927.28
2022-09-23T04:51:56.860Z,101928.25
2022-09-23T04:55:18.287Z,101923.91
2022-09-23T04:58:41.430Z,101926.66
2022-09-23T05:02:02.942Z,101928.50
2022-09-23T05:05:24.758Z,101924.09
2022-09-23T05:08:48.912Z,101930.22
2022-09-23T05:12:10.260Z,101927.66
2022-09-23T05:15:32.845Z,101919.78
2022-09-23T05:18:55.279Z,101920.66
2022-09-23T05:22:16.368Z,101918.06
2022-09-23T05:25:38.500Z,101919.00
2022-09-23T05:29:00.730Z,101917.28
2022-09-23T05:32:23.884Z,101909.41
2022-09-23T05:35:48.399Z,101913.75
2022-09-23T05:39:09.936Z,101915.31
2022-09-23T05:42:31.975Z,101914.28
2022-09-23T05:46:05.872Z,101905.44
2022-09-23T05:49:55.362Z,101910.59
2022-09-23T05:53:12.254Z,101911.41
2022-09-23T05:56:35.300Z,101912.19
2022-09-23T05:59:56.714Z,101903.50
2022-09-23T06:03:20.125Z,101903.56
2022-09-23T06:06:44.064Z,101908.53
2022-09-23T06:10:06.921Z,101918.59
2022-09-23T06:13:28.153Z,101914.66
2022-09-23T06:16:49.451Z,101916.75
2022-09-23T06:20:11.293Z,101916.31
2022-09-23T06:23:37.499Z,101921.25
2022-09-23T06:27:02.516Z,101920.94
2022-09-23T06:30:24.730Z,101917.91
2022-09-23T06:33:46.958Z,101914.94
2022-09-23T06:37:17.284Z,101923.34
2022-09-23T06:40:42.626Z,101913.28
2022-09-23T06:44:04.721Z,101913.81
2022-09-23T06:47:26.197Z,101917.69
2022-09-23T06:50:48.376Z,101924.22
2022-09-23T06:54:11.006Z,101923.00
2022-09-23T06:57:34.627Z,101917.44
2022-09-23T07:01:02.184Z,101917.75
2022-09-23T07:04:28.619Z,101916.13
2022-09-23T07:07:51.175Z,101914.63
2022-09-23T07:11:13.327Z,101915.75
2022-09-23T07:14:36.649Z,101919.75
2022-09-23T07:17:58.604Z,101920.97
2022-09-23T07:21:20.706Z,101922.22
2022-09-23T07:24:42.310Z,101916.25
2022-09-23T07:28:03.660Z,101926.38
2022-09-23T07:31:38.722Z,101925.00
2022-09-23T07:35:01.076Z,101923.44
2022-09-23T07:38:30.202Z,101925.44
2022-09-23T07:41:52.072Z,101920.28
2022-09-23T07:45:13.383Z,101918.00
2022-09-23T07:48:36.507Z,101924.38
2022-09-23T07:51:58.152Z,101915.69
2022-09-23T07:55:21.085Z,101911.44
2022-09-23T07:58:43.198Z,101910.75
2022-09-23T08:02:05.260Z,101910.84
2022-09-23T08:05:28.938Z,101910.94
2022-09-23T08:08:53.323Z,101918.13
2022-09-23T08:12:19.974Z,101908.50
2022-09-23T08:15:44.160Z,101910.50
2022-09-23T08:22:33.751Z,101900.03
2022-09-23T08:26:00.430Z,101895.69
2022-09-23T08:29:24.055Z,101899.34
2022-09-23T08:32:46.068Z,101891.38
2022-09-23T08:36:08.925Z,101888.81
2022-09-23T08:39:32.007Z,101886.25
2022-09-23T08:42:53.533Z,101890.81
2022-09-23T08:46:22.566Z,101886.41
2022-09-23T08:49:55.001Z,101876.59
2022-09-23T08:53:24.626Z,101871.13
2022-09-23T08:56:52.180Z,101870.91
2022-09-23T09:00:21.319Z,101864.63
2022-09-23T09:03:47.849Z,101865.25
2022-09-23T09:07:35.869Z,101861.56
2022-09-23T09:10:58.803Z,101857.84
2022-09-23T09:14:27.447Z,101854.34
2022-09-23T09:18:01.279Z,101840.66
2022-09-23T09:21:27.525Z,101848.13
2022-09-23T09:24:50.698Z,101846.91
2022-09-23T09:28:19.886Z,101842.63
2022-09-23T09:31:45.529Z,101840.66
2022-09-23T09:35:20.115Z,101841.22
2022-09-23T09:38:41.431Z,101842.03
2022-09-23T09:42:04.721Z,101839.31
2022-09-23T09:45:40.874Z,101825.78
2022-09-23T09:49:11.311Z,101825.56
2022-09-23T09:52:33.035Z,101810.41
2022-09-23T09:56:05.298Z,101812.88
2022-09-23T09:59:29.674Z,101806.69
2022-09-23T10:02:54.003Z,101800.50
2022-09-23T10:06:20.912Z,101798.31
2022-09-23T10:09:50.059Z,101795.38
2022-09-23T10:13:16.402Z,101795.38
2022-09-23T10:16:37.916Z,101792.06
2022-09-23T10:20:02.230Z,101790.53
2022-09-23T10:23:29.699Z,101788.69
2022-09-23T10:26:58.188Z,101789.75
2022-09-23T10:30:24.950Z,101786.91
2022-09-23T10:33:50.035Z,101782.34
2022-09-23T10:37:18.114Z,101778.94
2022-09-23T10:41:01.718Z,101772.53
2022-09-23T10:44:54.128Z,101769.66
2022-09-23T10:48:27.212Z,101772.41
2022-09-23T10:51:56.087Z,101773.34
2022-09-23T10:55:28.813Z,101761.53
2022-09-23T10:59:27.168Z,101771.63
2022-09-23T11:03:20.219Z,101759.72
2022-09-23T11:06:53.098Z,101756.94
2022-09-23T11:10:46.103Z,101742.44
2022-09-23T11:14:28.821Z,101748.69
2022-09-23T11:18:40.200Z,101745.19
2022-09-23T11:22:20.285Z,101742.53
2022-09-23T11:25:52.151Z,101743.78
2022-09-23T11:29:43.453Z,101733.47
2022-09-23T11:33:27.751Z,101730.97
2022-09-23T11:36:54.749Z,101724.19
2022-09-23T11:40:20.156Z,101719.94
2022-09-23T11:43:43.288Z,101716.56
2022-09-23T11:47:09.613Z,101715.00
2022-09-23T11:50:36.068Z,101708.38
2022-09-23T11:54:02.682Z,101711.34
2022-09-23T11:57:44.866Z,101701.31
2022-09-23T12:01:23.615Z,101689.16
2022-09-23T12:04:58.812Z,101686.16
2022-09-23T12:08:29.272Z,101680.38
2022-09-23T12:12:00.544Z,101682.91
2022-09-23T12:15:52.592Z,101672.31
2022-09-23T12:19:30.931Z,101673.84
2022-09-23T12:23:07.303Z,101662.97
2022-09-23T12:26:29.676Z,101654.06
2022-09-23T12:29:57.632Z,101659.31
2022-09-23T12:33:26.499Z,101650.94
2022-09-23T12:36:48.299Z,101654.34
2022-09-23T12:40:31.094Z,101652.34
2022-09-23T12:43:55.421Z,101650.06
2022-09-23T12:47:39.814Z,101647.78
2022-09-23T12:51:16.527Z,101631.09
2022-09-23T12:54:39.191Z,101633.63
2022-09-23T12:58:02.092Z,101625.56
2022-09-23T13:01:26.384Z,101625.25
2022-09-23T13:05:16.130Z,101622.13
2022-09-23T13:08:40.356Z,101619.97
2022-09-23T13:12:03.836Z,101607.09
2022-09-23T13:15:31.477Z,101609.34
2022-09-23T13:18:54.557Z,101608.88
2022-09-23T13:22:56.941Z,101608.59
2022-09-23T13:26:18.149Z,101598.22
2022-09-23T13:29:44.181Z,101596.22
2022-09-23T13:33:13.660Z,101600.91
2022-09-23T13:36:45.361Z,101588.16
2022-09-23T13:40:18.238Z,101574.72
2022-09-23T13:43:42.736Z,101575.44
2022-09-23T13:47:04.904Z,101570.59
2022-09-23T13:50:34.121Z,101567.44
2022-09-23T13:53:58.229Z,101572.22
2022-09-23T13:57:27.441Z,101567.22
2022-09-23T14:00:50.375Z,101554.31
2022-09-23T14:04:24.485Z,101552.31
2022-09-23T14:07:47.486Z,101545.50
2022-09-23T14:11:08.810Z,101545.88
2022-09-23T14:14:31.330Z,101546.28
2022-09-23T14:17:55.228Z,101535.72
2022-09-23T14:21:28.479Z,101530.88
2022-09-23T14:24:52.368Z,101535.97
2022-09-23T14:28:17.775Z,101537.97
2022-09-23T14:31:39.436Z,101530.34
2022-09-23T14:35:19.108Z,101527.81
2022-09-23T14:38:51.396Z,101522.94
2022-09-23T14:42:15.386Z,101524.31
2022-09-23T14:45:39.809Z,101521.34
2022-09-23T14:49:06.710Z,101510.72
2022-09-23T14:52:28.225Z,101507.72
2022-09-23T14:55:53.149Z,101507.25
2022-09-23T14:59:27.603Z,101505.25
2022-09-23T15:03:00.361Z,101503.44
2022-09-23T15:06:24.339Z,101503.66
2022-09-23T15:09:46.175Z,101498.31
2022-09-23T15:13:10.692Z,101506.31
2022-09-23T15:16:33.894Z,101501.66
2022-09-23T15:19:58.032Z,101507.59
2022-09-23T15:23:38.097Z,101509.50
2022-09-23T15:26:59.414Z,101505.44
2022-09-23T15:30:21.393Z,101502.72
2022-09-23T15:33:45.056Z,101502.13
2022-09-23T15:37:06.384Z,101501.03
2022-09-23T15:40:29.929Z,101496.69
2022-09-23T15:43:52.372Z,101493.22
2022-09-23T15:47:18.993Z,101499.63
2022-09-23T15:50:42.757Z,101498.91
2022-09-23T15:54:04.524Z,101499.56
2022-09-23T15:57:26.813Z,101495.88
2022-09-23T16:00:56.029Z,101503.91
2022-09-23T16:04:18.263Z,101493.09
2022-09-23T16:07:41.406Z,101499.28
2022-09-23T16:11:02.879Z,101493.50
2022-09-23T16:14:24.355Z,101498.50
2022-09-23T16:17:46.251Z,101487.22
2022-09-23T16:21:09.426Z,101486.56
2022-09-23T16:24:32.875Z,101488.56
2022-09-23T16:27:55.321Z,101486.88
2022-09-23T16:31:17.760Z,101485.16
2022-09-23T16:34:39.353Z,101497.75
2022-09-23T16:38:00.670Z,101491.66
2022-09-23T16:41:24.361Z,101498.97
2022-09-23T16:44:45.975Z,101501.78
2022-09-23T16:48:07.379Z,101497.25
2022-09-23T16:51:30.794Z,101489.31
2022-09-23T16:54:53.705Z,101492.97
2022-09-23T16:58:16.576Z,101493.94
2022-09-23T17:01:55.281Z,101490.38
2022-09-23T17:05:18.502Z,101483.28
2022-09-23T17:08:41.506Z,101477.16
2022-09-23T17:12:15.572Z,101480.78
2022-09-23T17:15:39.873Z,101479.75
2022-09-23T17:19:07.418Z,101472.66
2022-09-23T17:22:30.996Z,101474.31
2022-09-23T17:25:52.355Z,101472.25
2022-09-23T17:29:14.117Z,101471.22
2022-09-23T17:32:38.138Z,101463.69
2022-09-23T17:36:01.620Z,101462.53
2022-09-23T17:39:23.574Z,101459.66
2022-09-23T17:42:45.428Z,101457.63
2022-09-23T17:46:08.612Z,101451.09
2022-09-23T17:49:35.296Z,101451.63
2022-09-23T17:52:56.908Z,101452.97
2022-09-23T17:56:19.920Z,101453.50
2022-09-23T17:59:41.392Z,101467.38
2022-09-23T18:03:02.762Z,101464.22
2022-09-23T18:06:27.060Z,101459.50
2022-09-23T18:09:48.252Z,101460.84
2022-09-23T18:13:09.565Z,101463.31
2022-09-23T18:16:32.936Z,101468.31
2022-09-23T18:19:54.929Z,101465.28
2022-09-23T18:23:17.821Z,101473.81
2022-09-23T18:26:39.223Z,101475.38
2022-09-23T18:30:01.029Z,101469.56
2022-09-23T18:33:23.599Z,101467.25
2022-09-23T18:36:45.857Z,101465.78
2022-09-23T18:40:14.446Z,101464.22
2022-09-23T18:43:40.710Z,101461.91
2022-09-23T18:47:03.923Z,101464.81
2022-09-23T18:50:39.429Z,101458.75
2022-09-23T18:54:03.051Z,101462.50
2022-09-23T18:57:25.710Z,101452.78
2022-09-23T19:00:47.866Z,101455.59
2022-09-23T19:04:09.962Z,101457.53
2022-09-23T19:07:31.743Z,101457.75
2022-09-23T19:10:56.709Z,101455.34
2022-09-23T19:14:19.929Z,101459.94
2022-09-23T19:17:41.524Z,101455.56
2022-09-23T19:21:06.959Z,101458.38
2022-09-23T19:24:28.739Z,101457.75
2022-09-23T19:27:50.226Z,101449.16
2022-09-23T19:31:16.849Z,101456.56
2022-09-23T19:34:38.691Z,101459.69
2022-09-23T19:38:01.538Z,101453.16
2022-09-23T19:41:23.497Z,101449.97
2022-09-23T19:44:45.152Z,101453.25
2022-09-23T19:48:09.722Z,101448.38
2022-09-23T19:51:33.931Z,101441.81
2022-09-23T19:54:55.565Z,101446.03
2022-09-23T19:58:17.080Z,101437.56
2022-09-23T20:01:38.877Z,101438.13
2022-09-23T20:05:02.019Z,101446.69
2022-09-23T20:08:23.829Z,101438.19
2022-09-23T20:11:45.185Z,101442.91
2022-09-23T20:15:07.288Z,101443.34
2022-09-23T20:18:29.909Z,101432.34
2022-09-23T20:22:12.915Z,101436.16
2022-09-23T20:25:54.265Z,101434.69
2022-09-23T20:29:16.503Z,101427.91
2022-09-23T20:32:40.754Z,101436.13
2022-09-23T20:36:05.544Z,101437.31
2022-09-23T20:39:29.021Z,101432.41
2022-09-23T20:42:50.888Z,101432.63
2022-09-23T20:46:14.953Z,101425.84
2022-09-23T20:49:37.721Z,101427.03
2022-09-23T20:52:59.351Z,101427.34
2022-09-23T20:56:23.284Z,101422.34
2022-09-23T20:59:45.238Z,101421.84
2022-09-23T21:03:06.876Z,101424.00
2022-09-23T21:06:28.096Z,101419.84
2022-09-23T21:09:49.302Z,101422.63
2022-09-23T21:13:12.037Z,101419.13
2022-09-23T21:16:33.834Z,101416.31
2022-09-23T21:19:55.847Z,101419.13
2022-09-23T21:23:17.626Z,101414.97
2022-09-23T21:26:39.370Z,101417.97
2022-09-23T21:30:02.100Z,101412.75
2022-09-23T21:33:23.880Z,101419.13
2022-09-23T21:36:46.273Z,101415.75
2022-09-23T21:40:26.484Z,101407.13
2022-09-23T21:43:49.690Z,101406.50
2022-09-23T21:47:12.731Z,101406.81
2022-09-23T21:50:40.715Z,101409.59
2022-09-23T21:54:02.647Z,101401.94
2022-09-23T21:57:25.850Z,101397.69
2022-09-23T22:00:48.020Z,101387.25
2022-09-23T22:04:17.040Z,101394.50
2022-09-23T22:07:39.032Z,101389.31
2022-09-23T22:11:02.856Z,101392.94
2022-09-23T22:14:25.986Z,101384.22
2022-09-23T22:17:48.021Z,101388.88
2022-09-23T22:21:10.701Z,101383.56
2022-09-23T22:24:31.845Z,101389.75
2022-09-23T22:28:10.941Z,101390.78
2022-09-23T22:31:58.155Z,101373.25
2022-09-23T22:35:20.429Z,101379.50
2022-09-23T22:38:43.147Z,101382.38
2022-09-23T22:42:05.386Z,101376.13
2022-09-23T22:45:27.141Z,101377.06
2022-09-23T22:48:53.298Z,101368.34
2022-09-23T22:52:16.207Z,101364.88
2022-09-23T22:55:38.929Z,101374.75
2022-09-23T22:59:01.733Z,101370.50
2022-09-23T23:02:23.710Z,101374.03
2022-09-23T23:05:45.751Z,101376.56
2022-09-23T23:09:08.446Z,101368.78
2022-09-23T23:12:31.150Z,101372.31
2022-09-23T23:15:52.738Z,101359.88
2022-09-23T23:19:17.119Z,101364.34
2022-09-23T23:22:38.581Z,101363.47
2022-09-23T23:26:09.818Z,101353.72
2022-09-23T23:29:33.123Z,101356.25
2022-09-23T23:32:54.717Z,101347.97
2022-09-23T23:36:19.706Z,101349.53
2022-09-23T23:39:41.000Z,101341.47
2022-09-23T23:43:05.187Z,101348.38
2022-09-23T23:46:29.558Z,101345.72
2022-09-23T23:49:51.548Z,101345.72
2022-09-23T23:53:12.783Z,101346.66
2022-09-23T23:56:34.641Z,101345.81
2022-09-23T23:59:56.082Z,101345.91
